sensor_id;sensor_type;location;lat;lon;timestamp;P1;durP1;ratioP1;P2;durP2;ratioP2
18623;SDS011;9441;51.420;7.036;2023-12-20T00:00:00;64.13;;;20.80;;
18623;SDS011;9441;51.420;7.036;2023-12-20T00:01:05;68.33;;;19.80;;
18623;SDS011;9441;51.420;7.036;2023-12-20T00:02:06;69.53;;;20.27;;
18623;SDS011;9441;51.420;7.036;2023-12-20T00:03:08;61.87;;;20.23;;
18623;SDS011;9441;51.420;7.036;2023-12-20T00:04:10;59.50;;;20.53;;
18623;SDS011;9441;51.420;7.036;2023-12-20T00:05:11;71.80;;;21.77;;
18623;SDS011;9441;51.420;7.036;2023-12-20T00:06:14;64.93;;;18.73;;
18623;SDS011;9441;51.420;7.036;2023-12-20T00:07:15;64.00;;;19.53;;
18623;SDS011;9441;51.420;7.036;2023-12-20T00:08:17;65.30;;;19.83;;
18623;SDS011;9441;51.420;7.036;2023-12-20T00:09:19;69.33;;;20.37;;
18623;SDS011;9441;51.420;7.036;2023-12-20T00:10:21;69.77;;;20.23;;
18623;SDS011;9441;51.420;7.036;2023-12-20T00:11:24;70.07;;;20.03;;
18623;SDS011;9441;51.420;7.036;2023-12-20T00:12:25;65.63;;;20.63;;
18623;SDS011;9441;51.420;7.036;2023-12-20T00:13:27;73.30;;;20.90;;
18623;SDS011;9441;51.420;7.036;2023-12-20T00:14:29;60.13;;;19.03;;
18623;SDS011;9441;51.420;7.036;2023-12-20T00:15:31;70.47;;;19.50;;
18623;SDS011;9441;51.420;7.036;2023-12-20T00:16:32;70.37;;;19.83;;
18623;SDS011;9441;51.420;7.036;2023-12-20T00:17:34;69.30;;;19.57;;
18623;SDS011;9441;51.420;7.036;2023-12-20T00:18:36;67.43;;;19.13;;
18623;SDS011;9441;51.420;7.036;2023-12-20T00:19:38;61.97;;;18.93;;
18623;SDS011;9441;51.420;7.036;2023-12-20T00:20:39;64.27;;;18.83;;
18623;SDS011;9441;51.420;7.036;2023-12-20T00:21:42;62.57;;;17.37;;
18623;SDS011;9441;51.420;7.036;2023-12-20T00:22:43;61.83;;;17.53;;
18623;SDS011;9441;51.420;7.036;2023-12-20T00:23:45;60.30;;;17.53;;
18623;SDS011;9441;51.420;7.036;2023-12-20T00:24:47;66.80;;;18.40;;
18623;SDS011;9441;51.420;7.036;2023-12-20T00:25:49;60.70;;;17.70;;
18623;SDS011;9441;51.420;7.036;2023-12-20T00:26:52;59.90;;;17.10;;
18623;SDS011;9441;51.420;7.036;2023-12-20T00:27:53;61.03;;;17.20;;
18623;SDS011;9441;51.420;7.036;2023-12-20T00:28:54;60.80;;;17.30;;
18623;SDS011;9441;51.420;7.036;2023-12-20T00:29:56;61.97;;;17.57;;
18623;SDS011;9441;51.420;7.036;2023-12-20T00:30:58;56.57;;;16.90;;
18623;SDS011;9441;51.420;7.036;2023-12-20T00:32:00;62.23;;;17.33;;
18623;SDS011;9441;51.420;7.036;2023-12-20T00:33:02;47.53;;;15.57;;
18623;SDS011;9441;51.420;7.036;2023-12-20T00:34:04;67.83;;;17.40;;
18623;SDS011;9441;51.420;7.036;2023-12-20T00:35:06;59.87;;;16.67;;
18623;SDS011;9441;51.420;7.036;2023-12-20T00:36:08;48.23;;;15.53;;
18623;SDS011;9441;51.420;7.036;2023-12-20T00:37:10;59.17;;;16.73;;
18623;SDS011;9441;51.420;7.036;2023-12-20T00:38:12;59.00;;;16.37;;
18623;SDS011;9441;51.420;7.036;2023-12-20T00:39:13;59.63;;;16.47;;
18623;SDS011;9441;51.420;7.036;2023-12-20T00:40:15;52.70;;;15.93;;
18623;SDS011;9441;51.420;7.036;2023-12-20T00:41:18;56.77;;;15.30;;
18623;SDS011;9441;51.420;7.036;2023-12-20T00:42:19;54.80;;;15.50;;
18623;SDS011;9441;51.420;7.036;2023-12-20T00:43:22;59.63;;;16.10;;
18623;SDS011;9441;51.420;7.036;2023-12-20T00:44:23;54.07;;;15.23;;
18623;SDS011;9441;51.420;7.036;2023-12-20T00:45:26;52.60;;;14.77;;
18623;SDS011;9441;51.420;7.036;2023-12-20T00:46:27;53.83;;;15.40;;
18623;SDS011;9441;51.420;7.036;2023-12-20T00:47:30;46.83;;;13.10;;
18623;SDS011;9441;51.420;7.036;2023-12-20T00:48:31;46.10;;;14.07;;
18623;SDS011;9441;51.420;7.036;2023-12-20T00:49:33;54.37;;;14.07;;
18623;SDS011;9441;51.420;7.036;2023-12-20T00:50:35;46.00;;;13.20;;
18623;SDS011;9441;51.420;7.036;2023-12-20T00:51:36;44.20;;;13.03;;
18623;SDS011;9441;51.420;7.036;2023-12-20T00:52:38;48.43;;;12.80;;
18623;SDS011;9441;51.420;7.036;2023-12-20T00:53:40;58.30;;;13.10;;
18623;SDS011;9441;51.420;7.036;2023-12-20T00:54:41;45.13;;;12.57;;
18623;SDS011;9441;51.420;7.036;2023-12-20T00:55:44;47.83;;;12.50;;
18623;SDS011;9441;51.420;7.036;2023-12-20T00:56:47;42.60;;;12.27;;
18623;SDS011;9441;51.420;7.036;2023-12-20T00:57:49;38.73;;;11.70;;
18623;SDS011;9441;51.420;7.036;2023-12-20T00:58:51;43.00;;;12.13;;
18623;SDS011;9441;51.420;7.036;2023-12-20T00:59:53;50.23;;;12.23;;
18623;SDS011;9441;51.420;7.036;2023-12-20T01:00:55;48.67;;;12.03;;
18623;SDS011;9441;51.420;7.036;2023-12-20T01:01:56;43.17;;;12.57;;
18623;SDS011;9441;51.420;7.036;2023-12-20T01:02:59;43.17;;;12.50;;
18623;SDS011;9441;51.420;7.036;2023-12-20T01:04:00;42.97;;;11.50;;
18623;SDS011;9441;51.420;7.036;2023-12-20T01:05:04;46.57;;;11.17;;
18623;SDS011;9441;51.420;7.036;2023-12-20T01:06:05;39.63;;;11.10;;
18623;SDS011;9441;51.420;7.036;2023-12-20T01:07:07;39.50;;;11.07;;
18623;SDS011;9441;51.420;7.036;2023-12-20T01:08:09;38.70;;;11.30;;
18623;SDS011;9441;51.420;7.036;2023-12-20T01:09:11;40.33;;;11.80;;
18623;SDS011;9441;51.420;7.036;2023-12-20T01:10:12;38.20;;;10.27;;
18623;SDS011;9441;51.420;7.036;2023-12-20T01:11:15;33.27;;;10.80;;
18623;SDS011;9441;51.420;7.036;2023-12-20T01:12:18;32.10;;;9.57;;
18623;SDS011;9441;51.420;7.036;2023-12-20T01:13:21;42.60;;;10.13;;
18623;SDS011;9441;51.420;7.036;2023-12-20T01:14:22;45.83;;;9.83;;
18623;SDS011;9441;51.420;7.036;2023-12-20T01:15:24;41.23;;;10.03;;
18623;SDS011;9441;51.420;7.036;2023-12-20T01:16:26;34.67;;;10.00;;
18623;SDS011;9441;51.420;7.036;2023-12-20T01:17:28;32.80;;;10.33;;
18623;SDS011;9441;51.420;7.036;2023-12-20T01:18:29;30.67;;;9.97;;
18623;SDS011;9441;51.420;7.036;2023-12-20T01:19:32;42.20;;;10.00;;
18623;SDS011;9441;51.420;7.036;2023-12-20T01:20:33;37.30;;;9.87;;
18623;SDS011;9441;51.420;7.036;2023-12-20T01:21:35;32.87;;;10.00;;
18623;SDS011;9441;51.420;7.036;2023-12-20T01:22:37;30.30;;;10.63;;
18623;SDS011;9441;51.420;7.036;2023-12-20T01:23:38;32.37;;;9.73;;
18623;SDS011;9441;51.420;7.036;2023-12-20T01:24:40;34.57;;;10.70;;
18623;SDS011;9441;51.420;7.036;2023-12-20T01:25:42;44.07;;;11.20;;
18623;SDS011;9441;51.420;7.036;2023-12-20T01:26:45;43.30;;;10.73;;
18623;SDS011;9441;51.420;7.036;2023-12-20T01:27:47;35.20;;;11.53;;
18623;SDS011;9441;51.420;7.036;2023-12-20T01:28:49;45.27;;;11.00;;
18623;SDS011;9441;51.420;7.036;2023-12-20T01:29:51;33.63;;;11.57;;
18623;SDS011;9441;51.420;7.036;2023-12-20T01:30:54;39.30;;;11.00;;
18623;SDS011;9441;51.420;7.036;2023-12-20T01:31:56;33.37;;;11.27;;
18623;SDS011;9441;51.420;7.036;2023-12-20T01:32:59;38.17;;;10.80;;
18623;SDS011;9441;51.420;7.036;2023-12-20T01:34:01;34.80;;;11.43;;
18623;SDS011;9441;51.420;7.036;2023-12-20T01:35:04;37.53;;;10.60;;
18623;SDS011;9441;51.420;7.036;2023-12-20T01:36:05;34.23;;;10.63;;
18623;SDS011;9441;51.420;7.036;2023-12-20T01:37:06;34.27;;;10.70;;
18623;SDS011;9441;51.420;7.036;2023-12-20T01:38:09;42.40;;;11.57;;
18623;SDS011;9441;51.420;7.036;2023-12-20T01:39:10;36.27;;;11.50;;
18623;SDS011;9441;51.420;7.036;2023-12-20T01:40:12;29.47;;;11.03;;
18623;SDS011;9441;51.420;7.036;2023-12-20T01:41:14;35.60;;;10.70;;
18623;SDS011;9441;51.420;7.036;2023-12-20T01:42:16;44.47;;;11.57;;
18623;SDS011;9441;51.420;7.036;2023-12-20T01:43:19;38.33;;;11.73;;
18623;SDS011;9441;51.420;7.036;2023-12-20T01:44:21;38.53;;;11.77;;
18623;SDS011;9441;51.420;7.036;2023-12-20T01:45:22;29.07;;;11.60;;
18623;SDS011;9441;51.420;7.036;2023-12-20T01:46:23;35.33;;;11.70;;
18623;SDS011;9441;51.420;7.036;2023-12-20T01:47:26;38.57;;;11.77;;
18623;SDS011;9441;51.420;7.036;2023-12-20T01:48:27;40.00;;;11.80;;
18623;SDS011;9441;51.420;7.036;2023-12-20T01:49:32;46.40;;;12.97;;
18623;SDS011;9441;51.420;7.036;2023-12-20T01:50:34;49.23;;;13.03;;
18623;SDS011;9441;51.420;7.036;2023-12-20T01:51:37;41.63;;;12.33;;
18623;SDS011;9441;51.420;7.036;2023-12-20T01:52:39;36.67;;;12.53;;
18623;SDS011;9441;51.420;7.036;2023-12-20T01:53:42;39.73;;;12.37;;
18623;SDS011;9441;51.420;7.036;2023-12-20T01:54:44;37.13;;;12.63;;
18623;SDS011;9441;51.420;7.036;2023-12-20T01:55:46;40.77;;;12.50;;
18623;SDS011;9441;51.420;7.036;2023-12-20T01:56:49;38.27;;;12.73;;
18623;SDS011;9441;51.420;7.036;2023-12-20T01:57:51;45.37;;;12.77;;
18623;SDS011;9441;51.420;7.036;2023-12-20T01:58:54;35.80;;;13.03;;
18623;SDS011;9441;51.420;7.036;2023-12-20T01:59:57;40.50;;;13.03;;
18623;SDS011;9441;51.420;7.036;2023-12-20T02:00:58;44.27;;;12.13;;
18623;SDS011;9441;51.420;7.036;2023-12-20T02:02:01;34.77;;;11.87;;
18623;SDS011;9441;51.420;7.036;2023-12-20T02:03:04;40.90;;;12.67;;
18623;SDS011;9441;51.420;7.036;2023-12-20T02:04:07;32.60;;;11.57;;
18623;SDS011;9441;51.420;7.036;2023-12-20T02:05:08;31.97;;;10.47;;
18623;SDS011;9441;51.420;7.036;2023-12-20T02:06:11;34.43;;;11.37;;
18623;SDS011;9441;51.420;7.036;2023-12-20T02:07:12;36.27;;;10.57;;
18623;SDS011;9441;51.420;7.036;2023-12-20T02:08:14;39.07;;;10.93;;
18623;SDS011;9441;51.420;7.036;2023-12-20T02:09:16;29.60;;;9.70;;
18623;SDS011;9441;51.420;7.036;2023-12-20T02:10:17;32.30;;;10.27;;
18623;SDS011;9441;51.420;7.036;2023-12-20T02:11:19;35.63;;;10.30;;
18623;SDS011;9441;51.420;7.036;2023-12-20T02:12:21;34.80;;;10.60;;
18623;SDS011;9441;51.420;7.036;2023-12-20T02:13:23;35.67;;;9.73;;
18623;SDS011;9441;51.420;7.036;2023-12-20T02:14:28;36.60;;;9.50;;
18623;SDS011;9441;51.420;7.036;2023-12-20T02:15:30;39.10;;;9.97;;
18623;SDS011;9441;51.420;7.036;2023-12-20T02:16:31;30.10;;;9.30;;
18623;SDS011;9441;51.420;7.036;2023-12-20T02:17:34;33.87;;;9.77;;
18623;SDS011;9441;51.420;7.036;2023-12-20T02:18:35;30.17;;;8.73;;
18623;SDS011;9441;51.420;7.036;2023-12-20T02:19:37;35.10;;;8.87;;
18623;SDS011;9441;51.420;7.036;2023-12-20T02:20:39;28.93;;;9.13;;
18623;SDS011;9441;51.420;7.036;2023-12-20T02:21:42;36.70;;;9.07;;
18623;SDS011;9441;51.420;7.036;2023-12-20T02:22:44;30.93;;;9.37;;
18623;SDS011;9441;51.420;7.036;2023-12-20T02:23:46;36.70;;;9.77;;
18623;SDS011;9441;51.420;7.036;2023-12-20T02:24:47;29.90;;;9.47;;
18623;SDS011;9441;51.420;7.036;2023-12-20T02:25:49;33.23;;;9.23;;
18623;SDS011;9441;51.420;7.036;2023-12-20T02:26:51;32.33;;;9.80;;
18623;SDS011;9441;51.420;7.036;2023-12-20T02:27:53;31.53;;;9.27;;
18623;SDS011;9441;51.420;7.036;2023-12-20T02:28:54;33.17;;;8.47;;
18623;SDS011;9441;51.420;7.036;2023-12-20T02:29:57;37.60;;;9.73;;
18623;SDS011;9441;51.420;7.036;2023-12-20T02:30:58;27.70;;;8.67;;
18623;SDS011;9441;51.420;7.036;2023-12-20T02:32:00;34.83;;;9.87;;
18623;SDS011;9441;51.420;7.036;2023-12-20T02:33:02;29.00;;;9.47;;
18623;SDS011;9441;51.420;7.036;2023-12-20T02:34:05;29.33;;;8.23;;
18623;SDS011;9441;51.420;7.036;2023-12-20T02:35:07;33.27;;;9.60;;
18623;SDS011;9441;51.420;7.036;2023-12-20T02:36:09;35.03;;;9.30;;
18623;SDS011;9441;51.420;7.036;2023-12-20T02:37:12;31.90;;;9.47;;
18623;SDS011;9441;51.420;7.036;2023-12-20T02:38:14;39.77;;;9.87;;
18623;SDS011;9441;51.420;7.036;2023-12-20T02:39:16;38.80;;;9.97;;
18623;SDS011;9441;51.420;7.036;2023-12-20T02:40:18;31.17;;;9.70;;
18623;SDS011;9441;51.420;7.036;2023-12-20T02:41:19;38.77;;;10.63;;
18623;SDS011;9441;51.420;7.036;2023-12-20T02:42:22;26.33;;;9.43;;
18623;SDS011;9441;51.420;7.036;2023-12-20T02:43:23;32.87;;;9.93;;
18623;SDS011;9441;51.420;7.036;2023-12-20T02:44:26;35.00;;;9.90;;
18623;SDS011;9441;51.420;7.036;2023-12-20T02:45:27;42.07;;;10.57;;
18623;SDS011;9441;51.420;7.036;2023-12-20T02:46:29;32.53;;;9.90;;
18623;SDS011;9441;51.420;7.036;2023-12-20T02:47:30;29.57;;;9.67;;
18623;SDS011;9441;51.420;7.036;2023-12-20T02:48:33;40.83;;;10.13;;
18623;SDS011;9441;51.420;7.036;2023-12-20T02:49:34;36.37;;;10.00;;
18623;SDS011;9441;51.420;7.036;2023-12-20T02:50:36;29.23;;;10.13;;
18623;SDS011;9441;51.420;7.036;2023-12-20T02:51:38;33.87;;;11.37;;
18623;SDS011;9441;51.420;7.036;2023-12-20T02:52:42;33.67;;;10.03;;
18623;SDS011;9441;51.420;7.036;2023-12-20T02:53:44;50.10;;;9.87;;
18623;SDS011;9441;51.420;7.036;2023-12-20T02:54:46;38.17;;;9.70;;
18623;SDS011;9441;51.420;7.036;2023-12-20T02:55:47;44.33;;;10.33;;
18623;SDS011;9441;51.420;7.036;2023-12-20T02:56:49;35.23;;;9.67;;
18623;SDS011;9441;51.420;7.036;2023-12-20T02:57:51;28.13;;;10.30;;
18623;SDS011;9441;51.420;7.036;2023-12-20T02:58:53;32.63;;;9.47;;
18623;SDS011;9441;51.420;7.036;2023-12-20T02:59:55;35.20;;;9.77;;
18623;SDS011;9441;51.420;7.036;2023-12-20T03:00:57;39.03;;;9.87;;
18623;SDS011;9441;51.420;7.036;2023-12-20T03:01:58;37.77;;;10.00;;
18623;SDS011;9441;51.420;7.036;2023-12-20T03:03:00;36.23;;;9.87;;
18623;SDS011;9441;51.420;7.036;2023-12-20T03:04:02;32.13;;;9.40;;
18623;SDS011;9441;51.420;7.036;2023-12-20T03:05:03;30.00;;;8.77;;
18623;SDS011;9441;51.420;7.036;2023-12-20T03:06:06;34.37;;;9.37;;
18623;SDS011;9441;51.420;7.036;2023-12-20T03:07:07;34.37;;;9.77;;
18623;SDS011;9441;51.420;7.036;2023-12-20T03:08:11;35.83;;;9.13;;
18623;SDS011;9441;51.420;7.036;2023-12-20T03:09:12;32.47;;;8.93;;
18623;SDS011;9441;51.420;7.036;2023-12-20T03:10:14;38.40;;;9.70;;
18623;SDS011;9441;51.420;7.036;2023-12-20T03:11:16;38.97;;;9.53;;
18623;SDS011;9441;51.420;7.036;2023-12-20T03:12:18;36.37;;;9.47;;
18623;SDS011;9441;51.420;7.036;2023-12-20T03:13:19;42.20;;;8.93;;
18623;SDS011;9441;51.420;7.036;2023-12-20T03:14:21;33.27;;;9.03;;
18623;SDS011;9441;51.420;7.036;2023-12-20T03:15:23;40.77;;;9.80;;
18623;SDS011;9441;51.420;7.036;2023-12-20T03:16:24;41.70;;;9.30;;
18623;SDS011;9441;51.420;7.036;2023-12-20T03:17:27;39.00;;;8.87;;
18623;SDS011;9441;51.420;7.036;2023-12-20T03:18:28;33.33;;;9.30;;
18623;SDS011;9441;51.420;7.036;2023-12-20T03:19:30;27.60;;;8.90;;
18623;SDS011;9441;51.420;7.036;2023-12-20T03:20:32;37.87;;;9.27;;
18623;SDS011;9441;51.420;7.036;2023-12-20T03:21:34;29.67;;;9.23;;
18623;SDS011;9441;51.420;7.036;2023-12-20T03:22:35;35.20;;;8.93;;
18623;SDS011;9441;51.420;7.036;2023-12-20T03:23:39;30.53;;;9.20;;
18623;SDS011;9441;51.420;7.036;2023-12-20T03:24:41;39.73;;;9.37;;
18623;SDS011;9441;51.420;7.036;2023-12-20T03:25:43;33.33;;;8.60;;
18623;SDS011;9441;51.420;7.036;2023-12-20T03:26:44;30.50;;;9.33;;
18623;SDS011;9441;51.420;7.036;2023-12-20T03:27:47;35.07;;;9.07;;
18623;SDS011;9441;51.420;7.036;2023-12-20T03:28:48;32.00;;;9.30;;
18623;SDS011;9441;51.420;7.036;2023-12-20T03:29:50;37.43;;;10.13;;
18623;SDS011;9441;51.420;7.036;2023-12-20T03:30:52;34.83;;;8.77;;
18623;SDS011;9441;51.420;7.036;2023-12-20T03:31:54;35.23;;;9.60;;
18623;SDS011;9441;51.420;7.036;2023-12-20T03:32:55;34.03;;;9.43;;
18623;SDS011;9441;51.420;7.036;2023-12-20T03:33:57;38.97;;;9.57;;
18623;SDS011;9441;51.420;7.036;2023-12-20T03:34:59;31.33;;;10.87;;
18623;SDS011;9441;51.420;7.036;2023-12-20T03:36:00;47.33;;;9.90;;
18623;SDS011;9441;51.420;7.036;2023-12-20T03:37:03;41.97;;;9.87;;
18623;SDS011;9441;51.420;7.036;2023-12-20T03:38:04;38.73;;;11.07;;
18623;SDS011;9441;51.420;7.036;2023-12-20T03:39:08;36.70;;;10.40;;
18623;SDS011;9441;51.420;7.036;2023-12-20T03:40:10;41.93;;;10.00;;
18623;SDS011;9441;51.420;7.036;2023-12-20T03:41:12;37.13;;;10.30;;
18623;SDS011;9441;51.420;7.036;2023-12-20T03:42:14;36.87;;;9.40;;
18623;SDS011;9441;51.420;7.036;2023-12-20T03:43:16;29.77;;;10.17;;
18623;SDS011;9441;51.420;7.036;2023-12-20T03:44:17;45.07;;;10.07;;
18623;SDS011;9441;51.420;7.036;2023-12-20T03:45:20;41.97;;;9.37;;
18623;SDS011;9441;51.420;7.036;2023-12-20T03:46:22;29.90;;;9.80;;
18623;SDS011;9441;51.420;7.036;2023-12-20T03:47:24;32.60;;;8.83;;
18623;SDS011;9441;51.420;7.036;2023-12-20T03:48:25;26.77;;;8.27;;
18623;SDS011;9441;51.420;7.036;2023-12-20T03:49:28;25.37;;;7.43;;
18623;SDS011;9441;51.420;7.036;2023-12-20T03:50:29;32.53;;;8.53;;
18623;SDS011;9441;51.420;7.036;2023-12-20T03:51:31;32.37;;;7.03;;
18623;SDS011;9441;51.420;7.036;2023-12-20T03:52:33;40.97;;;8.40;;
18623;SDS011;9441;51.420;7.036;2023-12-20T03:53:35;34.63;;;7.67;;
18623;SDS011;9441;51.420;7.036;2023-12-20T03:54:38;27.53;;;7.27;;
18623;SDS011;9441;51.420;7.036;2023-12-20T03:55:40;32.27;;;8.03;;
18623;SDS011;9441;51.420;7.036;2023-12-20T03:56:41;27.30;;;7.67;;
18623;SDS011;9441;51.420;7.036;2023-12-20T03:57:44;31.57;;;8.60;;
18623;SDS011;9441;51.420;7.036;2023-12-20T03:58:45;33.70;;;8.80;;
18623;SDS011;9441;51.420;7.036;2023-12-20T03:59:47;38.87;;;9.63;;
18623;SDS011;9441;51.420;7.036;2023-12-20T04:00:49;32.27;;;8.13;;
18623;SDS011;9441;51.420;7.036;2023-12-20T04:01:50;35.63;;;9.00;;
18623;SDS011;9441;51.420;7.036;2023-12-20T04:02:52;34.20;;;8.87;;
18623;SDS011;9441;51.420;7.036;2023-12-20T04:03:54;32.00;;;7.93;;
18623;SDS011;9441;51.420;7.036;2023-12-20T04:04:56;43.20;;;9.33;;
18623;SDS011;9441;51.420;7.036;2023-12-20T04:05:57;30.93;;;8.43;;
18623;SDS011;9441;51.420;7.036;2023-12-20T04:06:59;38.83;;;8.83;;
18623;SDS011;9441;51.420;7.036;2023-12-20T04:08:01;31.03;;;8.63;;
18623;SDS011;9441;51.420;7.036;2023-12-20T04:09:03;28.23;;;8.37;;
18623;SDS011;9441;51.420;7.036;2023-12-20T04:10:07;35.23;;;8.50;;
18623;SDS011;9441;51.420;7.036;2023-12-20T04:11:09;30.90;;;8.97;;
18623;SDS011;9441;51.420;7.036;2023-12-20T04:12:11;28.53;;;8.37;;
18623;SDS011;9441;51.420;7.036;2023-12-20T04:13:12;44.37;;;9.80;;
18623;SDS011;9441;51.420;7.036;2023-12-20T04:14:14;42.80;;;8.63;;
18623;SDS011;9441;51.420;7.036;2023-12-20T04:15:16;27.47;;;8.40;;
18623;SDS011;9441;51.420;7.036;2023-12-20T04:16:18;35.63;;;9.63;;
18623;SDS011;9441;51.420;7.036;2023-12-20T04:17:20;39.70;;;9.63;;
18623;SDS011;9441;51.420;7.036;2023-12-20T04:18:24;39.63;;;9.33;;
18623;SDS011;9441;51.420;7.036;2023-12-20T04:19:26;37.73;;;9.20;;
18623;SDS011;9441;51.420;7.036;2023-12-20T04:20:27;30.23;;;9.40;;
18623;SDS011;9441;51.420;7.036;2023-12-20T04:21:29;31.00;;;8.80;;
18623;SDS011;9441;51.420;7.036;2023-12-20T04:22:31;39.70;;;10.53;;
18623;SDS011;9441;51.420;7.036;2023-12-20T04:23:33;33.80;;;9.20;;
18623;SDS011;9441;51.420;7.036;2023-12-20T04:24:34;42.17;;;9.37;;
18623;SDS011;9441;51.420;7.036;2023-12-20T04:25:38;42.73;;;9.57;;
18623;SDS011;9441;51.420;7.036;2023-12-20T04:26:39;30.20;;;9.13;;
18623;SDS011;9441;51.420;7.036;2023-12-20T04:27:41;35.03;;;9.07;;
18623;SDS011;9441;51.420;7.036;2023-12-20T04:28:43;36.10;;;9.00;;
18623;SDS011;9441;51.420;7.036;2023-12-20T04:29:44;37.73;;;9.67;;
18623;SDS011;9441;51.420;7.036;2023-12-20T04:30:46;32.73;;;8.97;;
18623;SDS011;9441;51.420;7.036;2023-12-20T04:31:48;38.20;;;9.40;;
18623;SDS011;9441;51.420;7.036;2023-12-20T04:32:51;45.60;;;9.50;;
18623;SDS011;9441;51.420;7.036;2023-12-20T04:33:53;39.30;;;9.97;;
18623;SDS011;9441;51.420;7.036;2023-12-20T04:34:55;30.43;;;9.03;;
18623;SDS011;9441;51.420;7.036;2023-12-20T04:35:57;42.33;;;9.50;;
18623;SDS011;9441;51.420;7.036;2023-12-20T04:36:58;38.33;;;9.40;;
18623;SDS011;9441;51.420;7.036;2023-12-20T04:38:02;37.33;;;8.97;;
18623;SDS011;9441;51.420;7.036;2023-12-20T04:39:03;38.30;;;9.53;;
18623;SDS011;9441;51.420;7.036;2023-12-20T04:40:06;28.23;;;8.40;;
18623;SDS011;9441;51.420;7.036;2023-12-20T04:41:09;37.90;;;9.33;;
18623;SDS011;9441;51.420;7.036;2023-12-20T04:42:15;34.30;;;8.93;;
18623;SDS011;9441;51.420;7.036;2023-12-20T04:43:17;41.50;;;9.70;;
18623;SDS011;9441;51.420;7.036;2023-12-20T04:44:19;40.37;;;10.00;;
18623;SDS011;9441;51.420;7.036;2023-12-20T04:45:20;31.83;;;9.07;;
18623;SDS011;9441;51.420;7.036;2023-12-20T04:46:24;34.40;;;8.83;;
18623;SDS011;9441;51.420;7.036;2023-12-20T04:47:25;33.27;;;8.63;;
18623;SDS011;9441;51.420;7.036;2023-12-20T04:48:26;39.77;;;9.07;;
18623;SDS011;9441;51.420;7.036;2023-12-20T04:49:29;36.43;;;9.00;;
18623;SDS011;9441;51.420;7.036;2023-12-20T04:50:30;37.37;;;9.93;;
18623;SDS011;9441;51.420;7.036;2023-12-20T04:51:33;30.30;;;9.27;;
18623;SDS011;9441;51.420;7.036;2023-12-20T04:52:34;40.60;;;10.50;;
18623;SDS011;9441;51.420;7.036;2023-12-20T04:53:37;34.17;;;10.23;;
18623;SDS011;9441;51.420;7.036;2023-12-20T04:54:38;37.73;;;9.60;;
18623;SDS011;9441;51.420;7.036;2023-12-20T04:55:40;37.93;;;10.37;;
18623;SDS011;9441;51.420;7.036;2023-12-20T04:56:43;37.03;;;11.10;;
18623;SDS011;9441;51.420;7.036;2023-12-20T04:57:45;31.53;;;10.80;;
18623;SDS011;9441;51.420;7.036;2023-12-20T04:58:47;38.77;;;9.97;;
18623;SDS011;9441;51.420;7.036;2023-12-20T04:59:49;46.43;;;10.53;;
18623;SDS011;9441;51.420;7.036;2023-12-20T05:00:50;34.50;;;10.10;;
18623;SDS011;9441;51.420;7.036;2023-12-20T05:01:52;40.80;;;10.87;;
18623;SDS011;9441;51.420;7.036;2023-12-20T05:02:54;28.90;;;9.60;;
18623;SDS011;9441;51.420;7.036;2023-12-20T05:03:56;37.80;;;10.00;;
18623;SDS011;9441;51.420;7.036;2023-12-20T05:04:57;32.23;;;9.70;;
18623;SDS011;9441;51.420;7.036;2023-12-20T05:06:00;38.20;;;10.47;;
18623;SDS011;9441;51.420;7.036;2023-12-20T05:07:01;48.77;;;10.80;;
18623;SDS011;9441;51.420;7.036;2023-12-20T05:08:05;34.83;;;10.60;;
18623;SDS011;9441;51.420;7.036;2023-12-20T05:09:06;41.60;;;11.43;;
18623;SDS011;9441;51.420;7.036;2023-12-20T05:10:09;38.97;;;10.67;;
18623;SDS011;9441;51.420;7.036;2023-12-20T05:11:10;38.70;;;11.17;;
18623;SDS011;9441;51.420;7.036;2023-12-20T05:12:15;40.60;;;11.50;;
18623;SDS011;9441;51.420;7.036;2023-12-20T05:13:17;39.67;;;11.67;;
18623;SDS011;9441;51.420;7.036;2023-12-20T05:14:19;43.77;;;11.67;;
18623;SDS011;9441;51.420;7.036;2023-12-20T05:15:20;33.30;;;10.53;;
18623;SDS011;9441;51.420;7.036;2023-12-20T05:16:23;41.77;;;10.93;;
18623;SDS011;9441;51.420;7.036;2023-12-20T05:17:24;33.53;;;11.33;;
18623;SDS011;9441;51.420;7.036;2023-12-20T05:18:26;45.37;;;11.93;;
18623;SDS011;9441;51.420;7.036;2023-12-20T05:19:28;32.13;;;10.57;;
18623;SDS011;9441;51.420;7.036;2023-12-20T05:20:31;34.40;;;11.30;;
18623;SDS011;9441;51.420;7.036;2023-12-20T05:21:32;43.70;;;11.50;;
18623;SDS011;9441;51.420;7.036;2023-12-20T05:22:34;39.57;;;11.37;;
18623;SDS011;9441;51.420;7.036;2023-12-20T05:23:36;41.07;;;10.70;;
18623;SDS011;9441;51.420;7.036;2023-12-20T05:24:37;34.50;;;11.53;;
18623;SDS011;9441;51.420;7.036;2023-12-20T05:25:39;32.53;;;10.23;;
18623;SDS011;9441;51.420;7.036;2023-12-20T05:26:41;35.37;;;10.87;;
18623;SDS011;9441;51.420;7.036;2023-12-20T05:27:44;43.87;;;10.70;;
18623;SDS011;9441;51.420;7.036;2023-12-20T05:28:46;41.27;;;11.50;;
18623;SDS011;9441;51.420;7.036;2023-12-20T05:29:48;47.43;;;11.57;;
18623;SDS011;9441;51.420;7.036;2023-12-20T05:30:50;37.33;;;10.80;;
18623;SDS011;9441;51.420;7.036;2023-12-20T05:31:53;35.83;;;11.17;;
18623;SDS011;9441;51.420;7.036;2023-12-20T05:32:54;35.43;;;11.33;;
18623;SDS011;9441;51.420;7.036;2023-12-20T05:33:57;37.17;;;11.13;;
18623;SDS011;9441;51.420;7.036;2023-12-20T05:34:58;40.77;;;11.50;;
18623;SDS011;9441;51.420;7.036;2023-12-20T05:36:00;41.40;;;11.27;;
18623;SDS011;9441;51.420;7.036;2023-12-20T05:37:02;45.03;;;11.47;;
18623;SDS011;9441;51.420;7.036;2023-12-20T05:38:03;51.60;;;11.50;;
18623;SDS011;9441;51.420;7.036;2023-12-20T05:39:06;34.17;;;10.80;;
18623;SDS011;9441;51.420;7.036;2023-12-20T05:40:08;36.03;;;11.50;;
18623;SDS011;9441;51.420;7.036;2023-12-20T05:41:10;38.40;;;11.60;;
18623;SDS011;9441;51.420;7.036;2023-12-20T05:42:12;38.93;;;11.00;;
18623;SDS011;9441;51.420;7.036;2023-12-20T05:43:15;41.93;;;11.17;;
18623;SDS011;9441;51.420;7.036;2023-12-20T05:44:17;43.07;;;11.37;;
18623;SDS011;9441;51.420;7.036;2023-12-20T05:45:19;40.83;;;11.40;;
18623;SDS011;9441;51.420;7.036;2023-12-20T05:46:21;31.57;;;11.23;;
18623;SDS011;9441;51.420;7.036;2023-12-20T05:47:22;42.20;;;11.70;;
18623;SDS011;9441;51.420;7.036;2023-12-20T05:48:24;38.37;;;10.83;;
18623;SDS011;9441;51.420;7.036;2023-12-20T05:49:25;34.73;;;10.97;;
18623;SDS011;9441;51.420;7.036;2023-12-20T05:50:27;41.27;;;11.60;;
18623;SDS011;9441;51.420;7.036;2023-12-20T05:51:29;39.97;;;10.33;;
18623;SDS011;9441;51.420;7.036;2023-12-20T05:52:31;30.43;;;11.03;;
18623;SDS011;9441;51.420;7.036;2023-12-20T05:53:33;36.00;;;10.77;;
18623;SDS011;9441;51.420;7.036;2023-12-20T05:54:34;36.93;;;11.10;;
18623;SDS011;9441;51.420;7.036;2023-12-20T05:55:37;36.87;;;11.50;;
18623;SDS011;9441;51.420;7.036;2023-12-20T05:56:38;36.77;;;11.00;;
18623;SDS011;9441;51.420;7.036;2023-12-20T05:57:40;42.47;;;10.80;;
18623;SDS011;9441;51.420;7.036;2023-12-20T05:58:44;50.57;;;10.50;;
18623;SDS011;9441;51.420;7.036;2023-12-20T05:59:46;28.37;;;10.23;;
18623;SDS011;9441;51.420;7.036;2023-12-20T06:00:48;41.67;;;10.93;;
18623;SDS011;9441;51.420;7.036;2023-12-20T06:01:50;45.23;;;10.57;;
18623;SDS011;9441;51.420;7.036;2023-12-20T06:02:52;36.80;;;11.20;;
18623;SDS011;9441;51.420;7.036;2023-12-20T06:03:53;42.27;;;10.53;;
18623;SDS011;9441;51.420;7.036;2023-12-20T06:04:56;38.03;;;11.33;;
18623;SDS011;9441;51.420;7.036;2023-12-20T06:05:58;36.90;;;10.60;;
18623;SDS011;9441;51.420;7.036;2023-12-20T06:07:01;50.33;;;11.57;;
18623;SDS011;9441;51.420;7.036;2023-12-20T06:08:02;40.03;;;10.13;;
18623;SDS011;9441;51.420;7.036;2023-12-20T06:09:04;36.03;;;10.90;;
18623;SDS011;9441;51.420;7.036;2023-12-20T06:10:06;35.27;;;10.13;;